Seaside Park, New Jersey
Current Conditions -  °F | °C
As of 2:55 PM on Tuesday 21 Oct 2014 (Local Time) from KMJX Reporting Station
Thunderstorm Thunderstorm  
Wind Chill: 64°   Ceiling: Unl
Heat Index: 64°   Visibility: 10mi
Dew Point: 55°   Wind: 5mph
Humidity: 73%   Direction: 30°NNE
Pressure: 29.81"   Gusts: NA
Location:  39.93°N, 74.07°W
Report Text: KMJX 211855Z AUTO 03004KT 10SM TS FEW034 FEW070 18/13 A2981 RMK AO1 LTG DSNT NE TSB43
Loading
Personal Weather Stations






























Interactive Weather Map
Tropical Storm Tracking
New forecast layout! Learn more

10-Day Weather Forecast

Advertisements
Track Severe Weather on mobile